sensor_id;sensor_type;location;lat;lon;timestamp;P1;durP1;ratioP1;P2;durP2;ratioP2
75928;SDS011;64606;44.062;2.986;2023-11-19T00:00:43;6.25;;;3.78;;
75928;SDS011;64606;44.062;2.986;2023-11-19T00:03:09;7.45;;;3.80;;
75928;SDS011;64606;44.062;2.986;2023-11-19T00:05:36;12.75;;;3.80;;
75928;SDS011;64606;44.062;2.986;2023-11-19T00:08:02;8.88;;;3.78;;
75928;SDS011;64606;44.062;2.986;2023-11-19T00:10:28;10.13;;;4.13;;
75928;SDS011;64606;44.062;2.986;2023-11-19T00:12:55;8.88;;;3.45;;
75928;SDS011;64606;44.062;2.986;2023-11-19T00:15:22;9.20;;;3.60;;
75928;SDS011;64606;44.062;2.986;2023-11-19T00:17:49;7.45;;;3.25;;
75928;SDS011;64606;44.062;2.986;2023-11-19T00:20:18;7.75;;;3.28;;
75928;SDS011;64606;44.062;2.986;2023-11-19T00:22:44;8.20;;;3.45;;
75928;SDS011;64606;44.062;2.986;2023-11-19T00:25:16;11.93;;;3.45;;
75928;SDS011;64606;44.062;2.986;2023-11-19T00:27:42;8.63;;;3.72;;
75928;SDS011;64606;44.062;2.986;2023-11-19T00:30:11;6.47;;;3.70;;
75928;SDS011;64606;44.062;2.986;2023-11-19T00:32:38;9.45;;;3.55;;
75928;SDS011;64606;44.062;2.986;2023-11-19T00:35:05;4.85;;;2.97;;
75928;SDS011;64606;44.062;2.986;2023-11-19T00:37:32;10.57;;;3.50;;
75928;SDS011;64606;44.062;2.986;2023-11-19T00:39:58;7.35;;;3.25;;
75928;SDS011;64606;44.062;2.986;2023-11-19T00:42:24;8.38;;;3.38;;
75928;SDS011;64606;44.062;2.986;2023-11-19T00:44:51;14.77;;;3.95;;
75928;SDS011;64606;44.062;2.986;2023-11-19T00:47:18;7.35;;;3.67;;
75928;SDS011;64606;44.062;2.986;2023-11-19T00:49:47;7.22;;;3.63;;
75928;SDS011;64606;44.062;2.986;2023-11-19T00:52:14;12.32;;;4.28;;
75928;SDS011;64606;44.062;2.986;2023-11-19T00:54:40;10.93;;;3.25;;
75928;SDS011;64606;44.062;2.986;2023-11-19T00:57:06;7.85;;;3.42;;
75928;SDS011;64606;44.062;2.986;2023-11-19T00:59:32;8.95;;;3.35;;
75928;SDS011;64606;44.062;2.986;2023-11-19T01:01:58;9.38;;;3.47;;
75928;SDS011;64606;44.062;2.986;2023-11-19T01:04:33;6.30;;;3.38;;
75928;SDS011;64606;44.062;2.986;2023-11-19T01:06:59;6.60;;;3.00;;
75928;SDS011;64606;44.062;2.986;2023-11-19T01:09:25;11.90;;;3.40;;
75928;SDS011;64606;44.062;2.986;2023-11-19T01:11:51;8.50;;;3.58;;
75928;SDS011;64606;44.062;2.986;2023-11-19T01:14:17;6.03;;;3.03;;
75928;SDS011;64606;44.062;2.986;2023-11-19T01:16:43;8.88;;;3.30;;
75928;SDS011;64606;44.062;2.986;2023-11-19T01:19:10;10.88;;;3.08;;
75928;SDS011;64606;44.062;2.986;2023-11-19T01:21:36;8.55;;;2.80;;
75928;SDS011;64606;44.062;2.986;2023-11-19T01:24:02;7.78;;;2.85;;
75928;SDS011;64606;44.062;2.986;2023-11-19T01:26:31;5.95;;;2.80;;
75928;SDS011;64606;44.062;2.986;2023-11-19T01:28:57;5.88;;;3.00;;
75928;SDS011;64606;44.062;2.986;2023-11-19T01:31:23;7.38;;;2.80;;
75928;SDS011;64606;44.062;2.986;2023-11-19T01:33:49;8.43;;;3.13;;
75928;SDS011;64606;44.062;2.986;2023-11-19T01:36:15;6.18;;;3.35;;
75928;SDS011;64606;44.062;2.986;2023-11-19T01:38:41;8.98;;;3.83;;
75928;SDS011;64606;44.062;2.986;2023-11-19T01:41:08;6.72;;;3.70;;
75928;SDS011;64606;44.062;2.986;2023-11-19T01:43:38;12.35;;;4.03;;
75928;SDS011;64606;44.062;2.986;2023-11-19T01:46:08;8.80;;;3.80;;
75928;SDS011;64606;44.062;2.986;2023-11-19T01:48:39;9.60;;;3.75;;
75928;SDS011;64606;44.062;2.986;2023-11-19T01:51:06;9.75;;;4.13;;
75928;SDS011;64606;44.062;2.986;2023-11-19T01:53:33;12.23;;;4.05;;
75928;SDS011;64606;44.062;2.986;2023-11-19T01:56:00;11.93;;;4.80;;
75928;SDS011;64606;44.062;2.986;2023-11-19T01:58:26;12.70;;;4.97;;
75928;SDS011;64606;44.062;2.986;2023-11-19T02:00:55;12.20;;;4.88;;
75928;SDS011;64606;44.062;2.986;2023-11-19T02:03:22;15.77;;;4.82;;
75928;SDS011;64606;44.062;2.986;2023-11-19T02:05:50;18.05;;;5.32;;
75928;SDS011;64606;44.062;2.986;2023-11-19T02:08:18;20.00;;;5.32;;
75928;SDS011;64606;44.062;2.986;2023-11-19T02:10:45;18.90;;;5.40;;
75928;SDS011;64606;44.062;2.986;2023-11-19T02:13:11;16.52;;;5.57;;
75928;SDS011;64606;44.062;2.986;2023-11-19T02:15:39;18.80;;;5.18;;
75928;SDS011;64606;44.062;2.986;2023-11-19T02:18:21;11.05;;;4.88;;
75928;SDS011;64606;44.062;2.986;2023-11-19T02:20:50;22.05;;;5.53;;
75928;SDS011;64606;44.062;2.986;2023-11-19T02:23:17;32.70;;;5.95;;
75928;SDS011;64606;44.062;2.986;2023-11-19T02:25:46;18.35;;;5.82;;
75928;SDS011;64606;44.062;2.986;2023-11-19T02:28:14;24.90;;;6.18;;
75928;SDS011;64606;44.062;2.986;2023-11-19T02:30:41;20.77;;;5.25;;
75928;SDS011;64606;44.062;2.986;2023-11-19T02:33:07;20.77;;;7.13;;
75928;SDS011;64606;44.062;2.986;2023-11-19T02:35:33;24.85;;;8.60;;
75928;SDS011;64606;44.062;2.986;2023-11-19T02:37:59;23.02;;;7.68;;
75928;SDS011;64606;44.062;2.986;2023-11-19T02:40:26;16.27;;;6.63;;
75928;SDS011;64606;44.062;2.986;2023-11-19T02:42:52;21.77;;;6.47;;
75928;SDS011;64606;44.062;2.986;2023-11-19T02:45:20;17.63;;;6.63;;
75928;SDS011;64606;44.062;2.986;2023-11-19T02:47:47;18.00;;;6.10;;
75928;SDS011;64606;44.062;2.986;2023-11-19T02:50:13;20.52;;;5.70;;
75928;SDS011;64606;44.062;2.986;2023-11-19T02:52:43;14.55;;;5.80;;
75928;SDS011;64606;44.062;2.986;2023-11-19T02:55:10;13.68;;;5.90;;
75928;SDS011;64606;44.062;2.986;2023-11-19T02:57:41;15.35;;;5.95;;
75928;SDS011;64606;44.062;2.986;2023-11-19T03:00:17;16.20;;;5.35;;
75928;SDS011;64606;44.062;2.986;2023-11-19T03:02:46;14.20;;;5.25;;
75928;SDS011;64606;44.062;2.986;2023-11-19T03:05:14;23.33;;;5.60;;
75928;SDS011;64606;44.062;2.986;2023-11-19T03:07:42;16.52;;;5.55;;
75928;SDS011;64606;44.062;2.986;2023-11-19T03:10:11;18.63;;;5.57;;
75928;SDS011;64606;44.062;2.986;2023-11-19T03:12:41;29.77;;;7.03;;
75928;SDS011;64606;44.062;2.986;2023-11-19T03:15:08;15.27;;;5.97;;
75928;SDS011;64606;44.062;2.986;2023-11-19T03:17:40;16.65;;;5.88;;
75928;SDS011;64606;44.062;2.986;2023-11-19T03:20:08;13.43;;;5.70;;
75928;SDS011;64606;44.062;2.986;2023-11-19T03:22:41;15.20;;;5.70;;
75928;SDS011;64606;44.062;2.986;2023-11-19T03:25:09;19.45;;;6.47;;
75928;SDS011;64606;44.062;2.986;2023-11-19T03:27:35;27.55;;;5.97;;
75928;SDS011;64606;44.062;2.986;2023-11-19T03:30:05;23.67;;;5.85;;
75928;SDS011;64606;44.062;2.986;2023-11-19T03:32:32;16.70;;;5.95;;
75928;SDS011;64606;44.062;2.986;2023-11-19T03:35:00;21.50;;;5.70;;
75928;SDS011;64606;44.062;2.986;2023-11-19T03:37:26;15.38;;;4.97;;
75928;SDS011;64606;44.062;2.986;2023-11-19T03:39:53;22.17;;;5.57;;
75928;SDS011;64606;44.062;2.986;2023-11-19T03:42:20;17.13;;;5.40;;
75928;SDS011;64606;44.062;2.986;2023-11-19T03:44:46;14.57;;;5.47;;
75928;SDS011;64606;44.062;2.986;2023-11-19T03:47:14;12.85;;;5.57;;
75928;SDS011;64606;44.062;2.986;2023-11-19T03:49:40;17.73;;;6.03;;
75928;SDS011;64606;44.062;2.986;2023-11-19T03:52:07;13.43;;;6.35;;
75928;SDS011;64606;44.062;2.986;2023-11-19T03:54:34;14.88;;;5.72;;
75928;SDS011;64606;44.062;2.986;2023-11-19T03:57:00;11.82;;;5.95;;
75928;SDS011;64606;44.062;2.986;2023-11-19T03:59:28;10.95;;;5.03;;
75928;SDS011;64606;44.062;2.986;2023-11-19T04:01:54;13.77;;;5.43;;
75928;SDS011;64606;44.062;2.986;2023-11-19T04:04:21;16.60;;;5.88;;
75928;SDS011;64606;44.062;2.986;2023-11-19T04:06:48;26.05;;;5.70;;
75928;SDS011;64606;44.062;2.986;2023-11-19T04:09:14;10.55;;;5.40;;
75928;SDS011;64606;44.062;2.986;2023-11-19T04:11:41;26.00;;;5.43;;
75928;SDS011;64606;44.062;2.986;2023-11-19T04:14:07;18.25;;;5.00;;
75928;SDS011;64606;44.062;2.986;2023-11-19T04:16:35;20.35;;;5.03;;
75928;SDS011;64606;44.062;2.986;2023-11-19T04:19:01;9.77;;;4.18;;
75928;SDS011;64606;44.062;2.986;2023-11-19T04:21:27;9.75;;;4.25;;
75928;SDS011;64606;44.062;2.986;2023-11-19T04:23:53;8.32;;;4.22;;
75928;SDS011;64606;44.062;2.986;2023-11-19T04:26:19;12.63;;;3.97;;
75928;SDS011;64606;44.062;2.986;2023-11-19T04:28:45;6.45;;;3.67;;
75928;SDS011;64606;44.062;2.986;2023-11-19T04:31:11;10.85;;;3.88;;
75928;SDS011;64606;44.062;2.986;2023-11-19T04:33:37;9.30;;;4.35;;
75928;SDS011;64606;44.062;2.986;2023-11-19T04:36:03;10.05;;;4.20;;
75928;SDS011;64606;44.062;2.986;2023-11-19T04:38:29;11.38;;;3.88;;
75928;SDS011;64606;44.062;2.986;2023-11-19T04:40:56;8.38;;;4.60;;
75928;SDS011;64606;44.062;2.986;2023-11-19T04:43:22;10.35;;;4.57;;
75928;SDS011;64606;44.062;2.986;2023-11-19T04:45:48;9.18;;;4.10;;
75928;SDS011;64606;44.062;2.986;2023-11-19T04:48:14;8.23;;;3.72;;
75928;SDS011;64606;44.062;2.986;2023-11-19T04:50:40;9.38;;;4.10;;
75928;SDS011;64606;44.062;2.986;2023-11-19T04:53:06;15.80;;;3.70;;
75928;SDS011;64606;44.062;2.986;2023-11-19T04:55:32;6.28;;;3.78;;
75928;SDS011;64606;44.062;2.986;2023-11-19T04:57:59;6.35;;;3.80;;
75928;SDS011;64606;44.062;2.986;2023-11-19T05:00:25;9.32;;;4.13;;
75928;SDS011;64606;44.062;2.986;2023-11-19T05:02:51;7.93;;;3.55;;
75928;SDS011;64606;44.062;2.986;2023-11-19T05:05:17;6.93;;;3.55;;
75928;SDS011;64606;44.062;2.986;2023-11-19T05:07:43;7.35;;;3.45;;
75928;SDS011;64606;44.062;2.986;2023-11-19T05:10:09;5.53;;;3.53;;
75928;SDS011;64606;44.062;2.986;2023-11-19T05:12:35;6.82;;;3.90;;
75928;SDS011;64606;44.062;2.986;2023-11-19T05:15:02;7.72;;;3.88;;
75928;SDS011;64606;44.062;2.986;2023-11-19T05:17:28;5.97;;;3.35;;
75928;SDS011;64606;44.062;2.986;2023-11-19T05:19:54;18.25;;;3.92;;
75928;SDS011;64606;44.062;2.986;2023-11-19T05:22:20;5.93;;;3.45;;
75928;SDS011;64606;44.062;2.986;2023-11-19T05:24:46;6.35;;;3.80;;
75928;SDS011;64606;44.062;2.986;2023-11-19T05:27:14;5.78;;;3.67;;
75928;SDS011;64606;44.062;2.986;2023-11-19T05:29:40;7.60;;;4.28;;
75928;SDS011;64606;44.062;2.986;2023-11-19T05:32:07;6.50;;;3.90;;
75928;SDS011;64606;44.062;2.986;2023-11-19T05:34:34;7.68;;;3.92;;
75928;SDS011;64606;44.062;2.986;2023-11-19T05:37:00;8.80;;;4.10;;
75928;SDS011;64606;44.062;2.986;2023-11-19T05:39:27;9.88;;;4.13;;
75928;SDS011;64606;44.062;2.986;2023-11-19T05:41:53;15.40;;;4.00;;
75928;SDS011;64606;44.062;2.986;2023-11-19T05:44:19;6.53;;;3.88;;
75928;SDS011;64606;44.062;2.986;2023-11-19T05:46:45;6.47;;;3.70;;
75928;SDS011;64606;44.062;2.986;2023-11-19T05:49:11;7.05;;;3.80;;
75928;SDS011;64606;44.062;2.986;2023-11-19T05:51:38;7.82;;;4.38;;
75928;SDS011;64606;44.062;2.986;2023-11-19T05:54:08;9.52;;;4.85;;
75928;SDS011;64606;44.062;2.986;2023-11-19T05:56:35;11.02;;;4.30;;
75928;SDS011;64606;44.062;2.986;2023-11-19T05:59:01;10.20;;;4.38;;
75928;SDS011;64606;44.062;2.986;2023-11-19T06:01:29;11.75;;;4.45;;
75928;SDS011;64606;44.062;2.986;2023-11-19T06:03:55;16.92;;;4.20;;
75928;SDS011;64606;44.062;2.986;2023-11-19T06:06:21;11.35;;;4.18;;
75928;SDS011;64606;44.062;2.986;2023-11-19T06:08:47;6.72;;;3.70;;
75928;SDS011;64606;44.062;2.986;2023-11-19T06:11:15;8.45;;;3.90;;
75928;SDS011;64606;44.062;2.986;2023-11-19T06:13:44;8.68;;;3.78;;
75928;SDS011;64606;44.062;2.986;2023-11-19T06:16:10;10.45;;;3.83;;
75928;SDS011;64606;44.062;2.986;2023-11-19T06:18:36;7.25;;;3.50;;
75928;SDS011;64606;44.062;2.986;2023-11-19T06:21:02;10.38;;;4.43;;
75928;SDS011;64606;44.062;2.986;2023-11-19T06:23:28;12.75;;;4.57;;
75928;SDS011;64606;44.062;2.986;2023-11-19T06:25:54;9.55;;;4.75;;
75928;SDS011;64606;44.062;2.986;2023-11-19T06:28:20;8.52;;;4.35;;
75928;SDS011;64606;44.062;2.986;2023-11-19T06:30:47;13.43;;;4.40;;
75928;SDS011;64606;44.062;2.986;2023-11-19T06:33:13;12.52;;;4.13;;
75928;SDS011;64606;44.062;2.986;2023-11-19T06:35:39;14.52;;;4.57;;
75928;SDS011;64606;44.062;2.986;2023-11-19T06:38:05;9.05;;;3.90;;
75928;SDS011;64606;44.062;2.986;2023-11-19T06:40:33;18.00;;;3.50;;
75928;SDS011;64606;44.062;2.986;2023-11-19T06:43:03;8.55;;;3.33;;
75928;SDS011;64606;44.062;2.986;2023-11-19T06:45:29;7.93;;;3.70;;
75928;SDS011;64606;44.062;2.986;2023-11-19T06:47:56;11.50;;;3.80;;
75928;SDS011;64606;44.062;2.986;2023-11-19T06:50:23;16.02;;;4.88;;
75928;SDS011;64606;44.062;2.986;2023-11-19T06:52:49;28.90;;;8.02;;
75928;SDS011;64606;44.062;2.986;2023-11-19T06:55:15;21.15;;;6.47;;
75928;SDS011;64606;44.062;2.986;2023-11-19T06:57:42;10.18;;;4.70;;
75928;SDS011;64606;44.062;2.986;2023-11-19T07:00:08;12.70;;;4.60;;
75928;SDS011;64606;44.062;2.986;2023-11-19T07:02:36;10.65;;;4.53;;
75928;SDS011;64606;44.062;2.986;2023-11-19T07:05:02;28.05;;;6.05;;
75928;SDS011;64606;44.062;2.986;2023-11-19T07:07:30;11.75;;;4.20;;
75928;SDS011;64606;44.062;2.986;2023-11-19T07:09:56;15.98;;;4.00;;
75928;SDS011;64606;44.062;2.986;2023-11-19T07:12:22;8.32;;;3.60;;
75928;SDS011;64606;44.062;2.986;2023-11-19T07:14:51;11.68;;;4.05;;
75928;SDS011;64606;44.062;2.986;2023-11-19T07:17:18;8.27;;;4.70;;
75928;SDS011;64606;44.062;2.986;2023-11-19T07:19:45;15.65;;;3.80;;
75928;SDS011;64606;44.062;2.986;2023-11-19T07:22:11;16.60;;;3.97;;
75928;SDS011;64606;44.062;2.986;2023-11-19T07:24:40;16.30;;;4.22;;
75928;SDS011;64606;44.062;2.986;2023-11-19T07:27:07;14.13;;;3.88;;
75928;SDS011;64606;44.062;2.986;2023-11-19T07:29:34;10.23;;;5.07;;
75928;SDS011;64606;44.062;2.986;2023-11-19T07:32:00;10.05;;;4.93;;
75928;SDS011;64606;44.062;2.986;2023-11-19T07:34:27;10.85;;;5.30;;
75928;SDS011;64606;44.062;2.986;2023-11-19T07:36:54;14.18;;;5.03;;
75928;SDS011;64606;44.062;2.986;2023-11-19T07:39:24;9.38;;;4.97;;
75928;SDS011;64606;44.062;2.986;2023-11-19T07:41:50;38.47;;;4.32;;
75928;SDS011;64606;44.062;2.986;2023-11-19T07:44:16;14.18;;;4.47;;
75928;SDS011;64606;44.062;2.986;2023-11-19T07:46:42;10.23;;;4.25;;
75928;SDS011;64606;44.062;2.986;2023-11-19T07:49:10;12.55;;;3.72;;
75928;SDS011;64606;44.062;2.986;2023-11-19T07:51:36;21.08;;;4.80;;
75928;SDS011;64606;44.062;2.986;2023-11-19T07:54:02;33.08;;;4.70;;
75928;SDS011;64606;44.062;2.986;2023-11-19T07:56:29;9.07;;;4.10;;
75928;SDS011;64606;44.062;2.986;2023-11-19T07:58:55;30.70;;;4.40;;
75928;SDS011;64606;44.062;2.986;2023-11-19T08:01:21;16.73;;;4.80;;
75928;SDS011;64606;44.062;2.986;2023-11-19T08:03:48;14.25;;;4.28;;
75928;SDS011;64606;44.062;2.986;2023-11-19T08:06:14;13.38;;;5.63;;
75928;SDS011;64606;44.062;2.986;2023-11-19T08:08:41;15.23;;;6.00;;
75928;SDS011;64606;44.062;2.986;2023-11-19T08:11:07;11.60;;;5.00;;
75928;SDS011;64606;44.062;2.986;2023-11-19T08:13:34;11.52;;;5.03;;
75928;SDS011;64606;44.062;2.986;2023-11-19T08:16:00;10.93;;;5.15;;
75928;SDS011;64606;44.062;2.986;2023-11-19T08:18:26;14.40;;;4.30;;
75928;SDS011;64606;44.062;2.986;2023-11-19T08:20:52;8.20;;;4.25;;
75928;SDS011;64606;44.062;2.986;2023-11-19T08:23:19;14.73;;;6.45;;
75928;SDS011;64606;44.062;2.986;2023-11-19T08:25:46;14.57;;;5.60;;
75928;SDS011;64606;44.062;2.986;2023-11-19T08:28:12;15.20;;;4.82;;
75928;SDS011;64606;44.062;2.986;2023-11-19T08:30:38;23.42;;;12.18;;
75928;SDS011;64606;44.062;2.986;2023-11-19T08:33:04;12.82;;;6.47;;
75928;SDS011;64606;44.062;2.986;2023-11-19T08:35:32;9.27;;;5.22;;
75928;SDS011;64606;44.062;2.986;2023-11-19T08:37:58;10.40;;;5.15;;
75928;SDS011;64606;44.062;2.986;2023-11-19T08:40:24;9.20;;;5.32;;
75928;SDS011;64606;44.062;2.986;2023-11-19T08:42:55;7.30;;;4.32;;
75928;SDS011;64606;44.062;2.986;2023-11-19T08:45:21;6.55;;;4.07;;
75928;SDS011;64606;44.062;2.986;2023-11-19T08:47:47;10.60;;;3.85;;
75928;SDS011;64606;44.062;2.986;2023-11-19T08:50:13;6.25;;;3.50;;
75928;SDS011;64606;44.062;2.986;2023-11-19T08:52:39;6.20;;;3.70;;
75928;SDS011;64606;44.062;2.986;2023-11-19T08:55:05;5.32;;;3.22;;
75928;SDS011;64606;44.062;2.986;2023-11-19T08:57:31;7.03;;;3.75;;
75928;SDS011;64606;44.062;2.986;2023-11-19T08:59:58;6.35;;;3.33;;
75928;SDS011;64606;44.062;2.986;2023-11-19T09:02:24;5.80;;;3.30;;
75928;SDS011;64606;44.062;2.986;2023-11-19T09:04:50;7.15;;;3.08;;
75928;SDS011;64606;44.062;2.986;2023-11-19T09:07:16;7.35;;;3.10;;
75928;SDS011;64606;44.062;2.986;2023-11-19T09:09:42;6.60;;;2.95;;
75928;SDS011;64606;44.062;2.986;2023-11-19T09:12:08;4.00;;;2.80;;
75928;SDS011;64606;44.062;2.986;2023-11-19T09:14:34;5.75;;;3.40;;
75928;SDS011;64606;44.062;2.986;2023-11-19T09:17:01;4.07;;;2.78;;
75928;SDS011;64606;44.062;2.986;2023-11-19T09:19:27;3.58;;;2.70;;
75928;SDS011;64606;44.062;2.986;2023-11-19T09:21:53;5.72;;;3.00;;
75928;SDS011;64606;44.062;2.986;2023-11-19T09:24:19;3.53;;;2.53;;
75928;SDS011;64606;44.062;2.986;2023-11-19T09:26:46;5.95;;;2.80;;
75928;SDS011;64606;44.062;2.986;2023-11-19T09:29:12;5.55;;;2.80;;
75928;SDS011;64606;44.062;2.986;2023-11-19T09:31:39;4.10;;;2.63;;
75928;SDS011;64606;44.062;2.986;2023-11-19T09:34:05;9.27;;;3.55;;
75928;SDS011;64606;44.062;2.986;2023-11-19T09:36:31;4.55;;;2.75;;
75928;SDS011;64606;44.062;2.986;2023-11-19T09:38:57;3.90;;;2.50;;
75928;SDS011;64606;44.062;2.986;2023-11-19T09:41:25;5.50;;;2.63;;
75928;SDS011;64606;44.062;2.986;2023-11-19T09:43:53;3.33;;;2.60;;
75928;SDS011;64606;44.062;2.986;2023-11-19T09:46:19;5.15;;;2.90;;
75928;SDS011;64606;44.062;2.986;2023-11-19T09:48:45;3.85;;;2.85;;
75928;SDS011;64606;44.062;2.986;2023-11-19T09:51:14;4.78;;;3.08;;
75928;SDS011;64606;44.062;2.986;2023-11-19T09:53:40;4.88;;;2.95;;
75928;SDS011;64606;44.062;2.986;2023-11-19T09:56:06;3.38;;;2.70;;
75928;SDS011;64606;44.062;2.986;2023-11-19T09:58:35;6.25;;;2.92;;
75928;SDS011;64606;44.062;2.986;2023-11-19T10:01:01;3.78;;;2.55;;
75928;SDS011;64606;44.062;2.986;2023-11-19T10:03:36;5.30;;;2.67;;
75928;SDS011;64606;44.062;2.986;2023-11-19T10:06:06;3.28;;;2.33;;
75928;SDS011;64606;44.062;2.986;2023-11-19T10:08:32;3.13;;;2.40;;
75928;SDS011;64606;44.062;2.986;2023-11-19T10:10:58;3.10;;;2.28;;
75928;SDS011;64606;44.062;2.986;2023-11-19T10:13:28;2.58;;;2.10;;
75928;SDS011;64606;44.062;2.986;2023-11-19T10:15:55;3.25;;;2.00;;
75928;SDS011;64606;44.062;2.986;2023-11-19T10:18:25;4.00;;;2.10;;
75928;SDS011;64606;44.062;2.986;2023-11-19T10:20:52;3.03;;;2.17;;
75928;SDS011;64606;44.062;2.986;2023-11-19T10:23:19;9.65;;;3.17;;
75928;SDS011;64606;44.062;2.986;2023-11-19T10:25:46;6.30;;;2.75;;
75928;SDS011;64606;44.062;2.986;2023-11-19T10:28:12;4.28;;;1.85;;
75928;SDS011;64606;44.062;2.986;2023-11-19T10:30:41;3.92;;;1.90;;
75928;SDS011;64606;44.062;2.986;2023-11-19T10:35:36;5.30;;;2.10;;
75928;SDS011;64606;44.062;2.986;2023-11-19T10:38:14;3.47;;;2.10;;
75928;SDS011;64606;44.062;2.986;2023-11-19T10:40:41;6.45;;;2.25;;
75928;SDS011;64606;44.062;2.986;2023-11-19T10:43:07;6.22;;;2.45;;
75928;SDS011;64606;44.062;2.986;2023-11-19T10:45:36;6.38;;;2.40;;
75928;SDS011;64606;44.062;2.986;2023-11-19T10:48:03;4.22;;;2.70;;
75928;SDS011;64606;44.062;2.986;2023-11-19T10:50:32;9.95;;;3.50;;
75928;SDS011;64606;44.062;2.986;2023-11-19T10:52:58;15.45;;;6.28;;
75928;SDS011;64606;44.062;2.986;2023-11-19T10:55:29;6.65;;;3.63;;
75928;SDS011;64606;44.062;2.986;2023-11-19T10:57:59;8.32;;;3.38;;
75928;SDS011;64606;44.062;2.986;2023-11-19T11:00:26;8.38;;;3.45;;
75928;SDS011;64606;44.062;2.986;2023-11-19T11:02:56;8.68;;;5.03;;
75928;SDS011;64606;44.062;2.986;2023-11-19T11:05:25;32.08;;;14.57;;
75928;SDS011;64606;44.062;2.986;2023-11-19T11:07:52;16.00;;;9.13;;
75928;SDS011;64606;44.062;2.986;2023-11-19T11:10:18;9.18;;;5.70;;
75928;SDS011;64606;44.062;2.986;2023-11-19T11:12:47;12.07;;;6.63;;
75928;SDS011;64606;44.062;2.986;2023-11-19T11:15:15;11.32;;;6.50;;
75928;SDS011;64606;44.062;2.986;2023-11-19T11:17:43;6.30;;;4.07;;
75928;SDS011;64606;44.062;2.986;2023-11-19T11:20:11;9.20;;;4.80;;
75928;SDS011;64606;44.062;2.986;2023-11-19T11:22:43;7.15;;;4.40;;
75928;SDS011;64606;44.062;2.986;2023-11-19T11:25:16;6.85;;;3.55;;
75928;SDS011;64606;44.062;2.986;2023-11-19T11:27:53;6.70;;;3.50;;
75928;SDS011;64606;44.062;2.986;2023-11-19T11:30:39;7.45;;;3.80;;
75928;SDS011;64606;44.062;2.986;2023-11-19T11:35:49;5.60;;;3.50;;
75928;SDS011;64606;44.062;2.986;2023-11-19T11:38:21;5.35;;;3.40;;
75928;SDS011;64606;44.062;2.986;2023-11-19T11:43:46;7.73;;;3.70;;
75928;SDS011;64606;44.062;2.986;2023-11-19T11:46:57;6.93;;;3.45;;
75928;SDS011;64606;44.062;2.986;2023-11-19T11:49:00;5.90;;;3.47;;
75928;SDS011;64606;44.062;2.986;2023-11-19T11:54:26;4.63;;;2.90;;
75928;SDS011;64606;44.062;2.986;2023-11-19T11:59:47;6.28;;;2.65;;
75928;SDS011;64606;44.062;2.986;2023-11-19T12:02:17;5.03;;;2.40;;
75928;SDS011;64606;44.062;2.986;2023-11-19T12:04:51;4.70;;;2.30;;
75928;SDS011;64606;44.062;2.986;2023-11-19T12:07:21;10.57;;;3.13;;
75928;SDS011;64606;44.062;2.986;2023-11-19T12:09:48;4.97;;;2.85;;
75928;SDS011;64606;44.062;2.986;2023-11-19T12:12:17;4.88;;;2.40;;
75928;SDS011;64606;44.062;2.986;2023-11-19T12:15:03;3.03;;;1.60;;
75928;SDS011;64606;44.062;2.986;2023-11-19T12:20:00;7.63;;;2.20;;
75928;SDS011;64606;44.062;2.986;2023-11-19T12:22:26;4.65;;;2.40;;
75928;SDS011;64606;44.062;2.986;2023-11-19T12:24:55;4.60;;;2.00;;
75928;SDS011;64606;44.062;2.986;2023-11-19T12:27:22;4.95;;;2.05;;
75928;SDS011;64606;44.062;2.986;2023-11-19T12:29:48;5.57;;;2.10;;
75928;SDS011;64606;44.062;2.986;2023-11-19T12:32:14;8.57;;;2.80;;
75928;SDS011;64606;44.062;2.986;2023-11-19T12:34:41;4.20;;;2.22;;
75928;SDS011;64606;44.062;2.986;2023-11-19T12:37:07;5.72;;;2.28;;
75928;SDS011;64606;44.062;2.986;2023-11-19T12:39:34;6.55;;;1.85;;
75928;SDS011;64606;44.062;2.986;2023-11-19T12:42:01;2.72;;;1.58;;
75928;SDS011;64606;44.062;2.986;2023-11-19T12:44:27;3.08;;;1.30;;
75928;SDS011;64606;44.062;2.986;2023-11-19T12:47:00;3.97;;;1.35;;
75928;SDS011;64606;44.062;2.986;2023-11-19T12:49:27;2.50;;;1.20;;
75928;SDS011;64606;44.062;2.986;2023-11-19T12:51:53;3.40;;;1.10;;
75928;SDS011;64606;44.062;2.986;2023-11-19T12:54:19;1.50;;;0.90;;
75928;SDS011;64606;44.062;2.986;2023-11-19T12:56:52;3.13;;;1.10;;
75928;SDS011;64606;44.062;2.986;2023-11-19T12:59:18;3.38;;;1.33;;
75928;SDS011;64606;44.062;2.986;2023-11-19T13:04:40;2.37;;;0.93;;
75928;SDS011;64606;44.062;2.986;2023-11-19T13:07:06;2.25;;;0.80;;
75928;SDS011;64606;44.062;2.986;2023-11-19T13:09:32;2.25;;;1.05;;
75928;SDS011;64606;44.062;2.986;2023-11-19T13:11:58;2.25;;;1.30;;
75928;SDS011;64606;44.062;2.986;2023-11-19T13:14:36;1.95;;;1.30;;
75928;SDS011;64606;44.062;2.986;2023-11-19T13:17:03;5.75;;;1.55;;
75928;SDS011;64606;44.062;2.986;2023-11-19T13:19:30;1.88;;;1.30;;
75928;SDS011;64606;44.062;2.986;2023-11-19T13:21:56;3.60;;;1.80;;
75928;SDS011;64606;44.062;2.986;2023-11-19T13:24:22;5.45;;;1.35;;
75928;SDS011;64606;44.062;2.986;2023-11-19T13:26:48;3.38;;;1.20;;
75928;SDS011;64606;44.062;2.986;2023-11-19T13:29:15;3.20;;;1.13;;
75928;SDS011;64606;44.062;2.986;2023-11-19T13:31:41;1.40;;;0.90;;
75928;SDS011;64606;44.062;2.986;2023-11-19T13:34:07;3.03;;;0.90;;
75928;SDS011;64606;44.062;2.986;2023-11-19T13:36:34;3.03;;;1.20;;
75928;SDS011;64606;44.062;2.986;2023-11-19T13:39:00;2.05;;;1.23;;
75928;SDS011;64606;44.062;2.986;2023-11-19T13:41:26;2.63;;;1.02;;
75928;SDS011;64606;44.062;2.986;2023-11-19T13:43:52;2.67;;;1.20;;
75928;SDS011;64606;44.062;2.986;2023-11-19T13:46:20;4.38;;;1.10;;
75928;SDS011;64606;44.062;2.986;2023-11-19T13:48:46;2.45;;;0.90;;
75928;SDS011;64606;44.062;2.986;2023-11-19T13:51:14;2.05;;;1.00;;
75928;SDS011;64606;44.062;2.986;2023-11-19T13:53:40;4.25;;;1.10;;
75928;SDS011;64606;44.062;2.986;2023-11-19T13:56:08;5.25;;;1.10;;
75928;SDS011;64606;44.062;2.986;2023-11-19T13:58:34;4.65;;;1.17;;
75928;SDS011;64606;44.062;2.986;2023-11-19T14:01:00;3.80;;;1.73;;
75928;SDS011;64606;44.062;2.986;2023-11-19T14:03:27;7.45;;;1.13;;
75928;SDS011;64606;44.062;2.986;2023-11-19T14:05:53;4.35;;;1.52;;
75928;SDS011;64606;44.062;2.986;2023-11-19T14:08:20;9.45;;;2.92;;
75928;SDS011;64606;44.062;2.986;2023-11-19T14:10:46;7.15;;;3.70;;
75928;SDS011;64606;44.062;2.986;2023-11-19T14:13:12;5.28;;;1.77;;
75928;SDS011;64606;44.062;2.986;2023-11-19T14:15:40;7.22;;;1.88;;
75928;SDS011;64606;44.062;2.986;2023-11-19T14:18:07;8.70;;;2.10;;
75928;SDS011;64606;44.062;2.986;2023-11-19T14:20:33;7.03;;;1.85;;
75928;SDS011;64606;44.062;2.986;2023-11-19T14:23:01;10.88;;;3.08;;
75928;SDS011;64606;44.062;2.986;2023-11-19T14:25:27;6.22;;;1.90;;
75928;SDS011;64606;44.062;2.986;2023-11-19T14:27:53;6.00;;;1.60;;
75928;SDS011;64606;44.062;2.986;2023-11-19T14:30:19;8.85;;;1.90;;
75928;SDS011;64606;44.062;2.986;2023-11-19T14:32:46;4.40;;;1.65;;
75928;SDS011;64606;44.062;2.986;2023-11-19T14:35:13;6.15;;;1.60;;
75928;SDS011;64606;44.062;2.986;2023-11-19T14:37:39;7.45;;;1.55;;
75928;SDS011;64606;44.062;2.986;2023-11-19T14:40:06;5.82;;;1.20;;
75928;SDS011;64606;44.062;2.986;2023-11-19T14:42:34;5.63;;;1.27;;
75928;SDS011;64606;44.062;2.986;2023-11-19T14:45:02;5.05;;;1.50;;
75928;SDS011;64606;44.062;2.986;2023-11-19T14:47:28;8.57;;;1.33;;
75928;SDS011;64606;44.062;2.986;2023-11-19T14:49:55;7.80;;;2.20;;
75928;SDS011;64606;44.062;2.986;2023-11-19T14:52:21;5.40;;;1.42;;
75928;SDS011;64606;44.062;2.986;2023-11-19T14:54:48;4.03;;;1.20;;
75928;SDS011;64606;44.062;2.986;2023-11-19T14:57:16;7.72;;;1.70;;
75928;SDS011;64606;44.062;2.986;2023-11-19T14:59:42;6.70;;;1.50;;
75928;SDS011;64606;44.062;2.986;2023-11-19T15:02:08;5.82;;;1.80;;